In Rescue
 
Open Full Screen Window  High Contrast Mode
Wind Gusting 00 knots
09
January 24, 2020 8:17 PM EST
Present Weather: Mist
Weather Information
Wind Direction
  090 °
Wind Speed
  09 kt (10 mph)
Wind Gust
  00 kt (0 mph)
Altimeter
29.83 in
Visibility
4 SM
Temperature
03° C
37° F
Dewpoint
01° C
34° F
Humidity
87%
Sky Condition
Overcast @ 600 ft
IFR

METAR KCFS 250117Z AUTO 09009KT 4SM BR OVC006 03/01 A2983 RMK AO2 T00250013

FAA Disclaimer: The data displayed is for advisory purposes only and is not to be used for flight planning or operations.